Time;durP1;ratioP1;P1;durP2;ratioP2;P2;SDS_P1;SDS_P2;PMS_P1;PMS_P2;Temp;Humidity;BMP_temperature;BMP_pressure;BME280_temperature;BME280_humidity;BME280_pressure;Samples;Min_cycle;Max_cycle;Signal;HPM_P1;HPM_P2
2022/07/19 00:01:33;;;;;;;5.32;5.07;;;;;;;-141.48;100.00;69781.59;4958670;29;20039;-61
2022/07/19 00:04:03;;;;;;;5.72;5.32;;;;;;;-141.48;100.00;69781.59;4974643;29;20063;-61
2022/07/19 00:06:34;;;;;;;7.72;6.95;;;;;;;-141.48;100.00;69781.59;4975039;29;20365;-61
2022/07/19 00:09:05;;;;;;;8.27;5.57;;;;;;;-141.48;100.00;69781.59;4958278;29;20127;-62
2022/07/19 00:11:35;;;;;;;5.57;5.32;;;;;;;-141.48;100.00;69781.59;4974994;29;20042;-61
2022/07/19 00:14:06;;;;;;;6.40;5.75;;;;;;;-141.48;100.00;69781.59;4975343;29;20377;-62
2022/07/19 00:16:36;;;;;;;8.15;7.45;;;;;;;-141.48;100.00;69781.59;4974964;29;20027;-62
2022/07/19 00:19:07;;;;;;;6.63;5.95;;;;;;;-141.48;100.00;69781.59;4973393;29;20027;-62
2022/07/19 00:21:37;;;;;;;5.15;4.85;;;;;;;-141.48;100.00;69781.59;4973233;29;20158;-61
2022/07/19 00:24:08;;;;;;;7.75;5.85;;;;;;;-141.48;100.00;69781.59;4977707;29;20027;-62
2022/07/19 00:26:38;;;;;;;6.15;5.80;;;;;;;-141.48;100.00;69781.59;4977509;29;20026;-62
2022/07/19 00:29:08;;;;;;;5.30;5.07;;;;;;;-141.48;100.00;69781.59;4961250;29;20088;-61
2022/07/19 00:31:39;;;;;;;5.93;5.55;;;;;;;-141.48;100.00;69781.59;4976603;29;20110;-62
2022/07/19 00:34:09;;;;;;;5.53;5.22;;;;;;;-141.48;100.00;69781.59;4976435;29;20059;-61
2022/07/19 00:36:40;;;;;;;6.28;5.88;;;;;;;-141.48;100.00;69781.59;4976595;29;20030;-62
2022/07/19 00:39:10;;;;;;;6.90;6.15;;;;;;;-141.48;100.00;69781.59;4957714;29;20047;-61
2022/07/19 00:41:42;;;;;;;5.40;5.00;;;;;;;-141.48;100.00;69781.59;4973606;29;20349;-62
2022/07/19 00:44:12;;;;;;;7.78;7.22;;;;;;;-141.48;100.00;69781.59;4975705;29;20035;-62
2022/07/19 00:46:43;;;;;;;6.95;6.47;;;;;;;-141.48;100.00;69781.59;4977804;29;20030;-62
2022/07/19 00:49:13;;;;;;;5.50;5.10;;;;;;;-141.48;100.00;69781.59;4961868;29;20049;-62
2022/07/19 00:51:45;;;;;;;5.47;4.97;;;;;;;-141.48;100.00;69781.59;4977869;29;20464;-61
2022/07/19 00:54:16;;;;;;;6.10;5.68;;;;;;;-141.48;100.00;69781.59;4977424;29;20035;-61
2022/07/19 00:56:51;;;;;;;6.00;5.60;;;;;;;-141.48;100.00;69781.59;4976674;29;20030;-61
2022/07/19 00:59:22;;;;;;;5.57;5.25;;;;;;;-141.48;100.00;69781.59;4962393;29;20062;-60
2022/07/19 01:01:53;;;;;;;5.25;5.05;;;;;;;-141.48;100.00;69781.59;4961964;29;20034;-61
2022/07/19 01:04:24;;;;;;;6.15;5.85;;;;;;;-141.48;100.00;69781.59;4962431;29;20172;-61
2022/07/19 01:06:55;;;;;;;6.38;5.07;;;;;;;-141.48;100.00;69781.59;4978678;29;20112;-62
2022/07/19 01:09:25;;;;;;;5.70;5.40;;;;;;;-141.48;100.00;69781.59;4977642;29;20031;-62
2022/07/19 01:11:57;;;;;;;6.10;5.70;;;;;;;-141.48;100.00;69781.59;4977231;29;20034;-62
2022/07/19 01:14:27;;;;;;;6.10;5.80;;;;;;;-141.48;100.00;69781.59;4960503;29;20041;-62
2022/07/19 01:17:02;;;;;;;5.22;4.97;;;;;;;-141.48;100.00;69781.59;4977332;29;20030;-62
2022/07/19 01:19:32;;;;;;;6.57;6.18;;;;;;;-141.48;100.00;69781.59;4977659;29;20035;-61
2022/07/19 01:22:03;;;;;;;7.28;5.90;;;;;;;-141.48;100.00;69781.59;4977152;29;20073;-62
2022/07/19 01:24:33;;;;;;;5.47;5.07;;;;;;;-141.48;100.00;69781.59;4976499;29;20030;-62
2022/07/19 01:27:05;;;;;;;5.75;5.25;;;;;;;-141.48;100.00;69781.59;4977482;29;20035;-62
2022/07/19 01:29:36;;;;;;;6.85;5.88;;;;;;;-141.48;100.00;69781.59;4977941;29;20057;-61
2022/07/19 01:32:07;;;;;;;6.05;5.80;;;;;;;-141.48;100.00;69781.59;4977458;29;20035;-61
2022/07/19 01:34:37;;;;;;;6.35;5.93;;;;;;;-141.48;100.00;69781.59;4960606;29;20159;-62
2022/07/19 01:37:07;;;;;;;6.28;5.95;;;;;;;-141.48;100.00;69781.59;4976918;29;20031;-68
2022/07/19 01:39:38;;;;;;;5.60;5.20;;;;;;;-141.48;100.00;69781.59;4976543;29;20027;-61
2022/07/19 01:42:08;;;;;;;6.22;5.82;;;;;;;-141.48;100.00;69781.59;4976884;29;20068;-61
2022/07/19 01:44:39;;;;;;;6.47;6.13;;;;;;;-141.48;100.00;69781.59;4975194;29;20027;-61
2022/07/19 01:47:09;;;;;;;5.65;5.35;;;;;;;-141.48;100.00;69781.59;4975844;29;20045;-61
2022/07/19 01:49:39;;;;;;;6.40;6.13;;;;;;;-141.48;100.00;69781.59;4976922;29;20477;-61
2022/07/19 01:52:10;;;;;;;5.32;4.93;;;;;;;-141.48;100.00;69781.59;4977596;29;20027;-63
2022/07/19 01:54:40;;;;;;;7.53;4.68;;;;;;;-141.48;100.00;69781.59;4976016;29;20064;-63
2022/07/19 01:57:11;;;;;;;6.75;6.25;;;;;;;-141.48;100.00;69781.59;4976417;29;20046;-63
2022/07/19 01:59:41;;;;;;;5.85;5.40;;;;;;;-141.48;100.00;69781.59;4977235;29;20031;-61
2022/07/19 02:02:12;;;;;;;6.35;5.85;;;;;;;-141.48;100.00;69781.59;4976912;29;20515;-61
2022/07/19 02:04:42;;;;;;;7.70;7.10;;;;;;;-141.48;100.00;69781.59;4960169;29;20034;-61
2022/07/19 02:07:12;;;;;;;7.32;6.90;;;;;;;-141.48;100.00;69781.59;4976770;29;20058;-62
2022/07/19 02:09:43;;;;;;;8.18;7.32;;;;;;;-141.48;100.00;69781.59;4976461;29;20054;-61
2022/07/19 02:12:13;;;;;;;6.03;5.72;;;;;;;-141.48;100.00;69781.59;4976794;29;20043;-62
2022/07/19 02:14:43;;;;;;;6.97;6.55;;;;;;;-141.48;100.00;69781.59;4976263;29;20083;-61
2022/07/19 02:17:14;;;;;;;6.75;6.35;;;;;;;-141.48;100.00;69781.59;4976417;29;20031;-62
2022/07/19 02:19:44;;;;;;;7.57;6.78;;;;;;;-141.48;100.00;69781.59;4959860;29;20126;-61
2022/07/19 02:22:15;;;;;;;7.43;6.82;;;;;;;-141.48;100.00;69781.59;4976326;29;20098;-61
2022/07/19 02:24:45;;;;;;;7.25;6.85;;;;;;;-141.48;100.00;69781.59;4975289;29;20061;-61
2022/07/19 02:27:16;;;;;;;7.60;6.35;;;;;;;-141.48;100.00;69781.59;4975114;29;20034;-61
2022/07/19 02:29:46;;;;;;;6.38;6.00;;;;;;;-141.48;100.00;69781.59;4974761;29;20023;-60
2022/07/19 02:32:17;;;;;;;6.00;5.70;;;;;;;-141.48;100.00;69781.59;4975547;29;20476;-62
2022/07/19 02:34:47;;;;;;;8.18;7.45;;;;;;;-141.48;100.00;69781.59;4975696;29;20076;-62
2022/07/19 02:37:18;;;;;;;8.02;7.63;;;;;;;-141.48;100.00;69781.59;4975985;29;20130;-62
2022/07/19 02:39:48;;;;;;;6.63;6.20;;;;;;;-141.48;100.00;69781.59;4976445;29;20401;-62
2022/07/19 02:42:18;;;;;;;7.28;6.88;;;;;;;-141.48;100.00;69781.59;4959497;29;20026;-62
2022/07/19 02:44:49;;;;;;;7.35;6.35;;;;;;;-141.48;100.00;69781.59;4976193;29;20042;-62
2022/07/19 02:47:19;;;;;;;7.60;7.18;;;;;;;-141.48;100.00;69781.59;4975455;29;20038;-62
2022/07/19 02:49:50;;;;;;;7.25;6.75;;;;;;;-141.48;100.00;69781.59;4975978;29;20050;-62
2022/07/19 02:52:20;;;;;;;7.07;6.68;;;;;;;-141.48;100.00;69781.59;4976096;29;20037;-62
2022/07/19 02:54:51;;;;;;;7.95;7.40;;;;;;;-141.48;100.00;69781.59;4975445;29;20042;-62
2022/07/19 02:57:21;;;;;;;11.13;7.60;;;;;;;-141.48;100.00;69781.59;4975953;29;20027;-62
2022/07/19 02:59:51;;;;;;;7.20;6.80;;;;;;;-141.48;100.00;69781.59;4975349;29;20110;-62
2022/07/19 03:02:22;;;;;;;7.35;6.78;;;;;;;-141.48;100.00;69781.59;4975951;29;20304;-65
2022/07/19 03:04:52;;;;;;;7.32;6.93;;;;;;;-141.48;100.00;69781.59;4975475;29;20115;-62
2022/07/19 03:07:23;;;;;;;8.43;7.88;;;;;;;-141.48;100.00;69781.59;4976377;29;20117;-63
2022/07/19 03:09:53;;;;;;;6.95;6.38;;;;;;;-141.48;100.00;69781.59;4975843;29;20092;-62
2022/07/19 03:12:24;;;;;;;9.45;7.05;;;;;;;-141.48;100.00;69781.59;4959500;29;20102;-62
2022/07/19 03:14:54;;;;;;;7.85;7.35;;;;;;;-141.48;100.00;69781.59;4974522;29;20033;-62
2022/07/19 03:17:25;;;;;;;7.00;6.40;;;;;;;-141.48;100.00;69781.59;4974325;29;20030;-62
2022/07/19 03:19:55;;;;;;;7.10;6.60;;;;;;;-141.48;100.00;69781.59;4975022;29;20066;-62
2022/07/19 03:22:25;;;;;;;7.20;6.82;;;;;;;-141.48;100.00;69781.59;4958896;29;20039;-62
2022/07/19 03:24:56;;;;;;;7.75;7.25;;;;;;;-141.48;100.00;69781.59;4975138;29;20115;-62
2022/07/19 03:27:27;;;;;;;9.18;6.45;;;;;;;-141.48;100.00;69781.59;4959298;29;20019;-62
2022/07/19 03:29:57;;;;;;;7.32;6.90;;;;;;;-141.48;100.00;69781.59;4958608;29;20477;-61
2022/07/19 03:32:28;;;;;;;7.45;7.05;;;;;;;-141.48;100.00;69781.59;4975461;29;20030;-61
2022/07/19 03:34:58;;;;;;;6.70;6.28;;;;;;;-141.48;100.00;69781.59;4974872;29;20489;-63
2022/07/19 03:37:28;;;;;;;7.43;6.95;;;;;;;-141.48;100.00;69781.59;4975302;29;20075;-62
2022/07/19 03:39:59;;;;;;;8.98;8.23;;;;;;;-141.48;100.00;69781.59;4975835;29;20035;-61
2022/07/19 03:42:29;;;;;;;6.85;6.28;;;;;;;-141.48;100.00;69781.59;4959012;29;20091;-62
2022/07/19 03:45:00;;;;;;;9.32;7.47;;;;;;;-141.48;100.00;69781.59;4975254;29;20038;-62
2022/07/19 03:47:30;;;;;;;7.68;7.10;;;;;;;-141.48;100.00;69781.59;4975775;29;20095;-62
2022/07/19 03:50:01;;;;;;;7.68;7.18;;;;;;;-141.48;100.00;69781.59;4958975;29;20031;-62
2022/07/19 03:52:31;;;;;;;8.05;7.28;;;;;;;-141.48;100.00;69781.59;4975927;29;20054;-63
2022/07/19 03:55:02;;;;;;;8.43;7.07;;;;;;;-141.48;100.00;69781.59;4975186;29;20031;-62
2022/07/19 03:57:32;;;;;;;11.73;8.10;;;;;;;-141.48;100.00;69781.59;4975948;29;20160;-61
2022/07/19 04:00:04;;;;;;;7.68;7.18;;;;;;;-141.48;100.00;69781.59;4973204;29;20094;-62
2022/07/19 04:02:34;;;;;;;6.32;5.88;;;;;;;-141.48;100.00;69781.59;4941997;29;20121;-62
2022/07/19 04:05:05;;;;;;;7.70;7.20;;;;;;;-141.48;100.00;69781.59;4973550;29;20109;-62
2022/07/19 04:07:36;;;;;;;7.43;6.65;;;;;;;-141.48;100.00;69781.59;4973587;29;20035;-62
2022/07/19 04:10:07;;;;;;;9.25;7.32;;;;;;;-141.48;100.00;69781.59;4974106;29;20111;-62
2022/07/19 04:12:38;;;;;;;8.02;7.53;;;;;;;-141.48;100.00;69781.59;4975450;29;20041;-62
2022/07/19 04:15:09;;;;;;;7.50;7.00;;;;;;;-141.48;100.00;69781.59;4975290;29;20443;-62
2022/07/19 04:17:40;;;;;;;8.80;8.00;;;;;;;-141.48;100.00;69781.59;4975235;29;20038;-61
2022/07/19 04:20:11;;;;;;;6.93;6.53;;;;;;;-141.48;100.00;69781.59;4978173;29;20114;-62
2022/07/19 04:22:41;;;;;;;8.90;8.20;;;;;;;-141.48;100.00;69781.59;4963257;29;20030;-62
2022/07/19 04:25:11;;;;;;;8.82;8.32;;;;;;;-141.48;100.00;69781.59;4978698;29;20031;-62
2022/07/19 04:27:43;;;;;;;7.13;6.68;;;;;;;-141.48;100.00;69781.59;4979301;29;20030;-62
2022/07/19 04:30:13;;;;;;;8.43;7.47;;;;;;;-141.48;100.00;69781.59;4978629;29;20368;-63
2022/07/19 04:32:43;;;;;;;8.63;7.93;;;;;;;-141.48;100.00;69781.59;4979095;29;20053;-62
2022/07/19 04:35:15;;;;;;;7.78;7.13;;;;;;;-141.48;100.00;69781.59;4962302;29;20035;-61
2022/07/19 04:37:46;;;;;;;7.55;6.95;;;;;;;-141.48;100.00;69781.59;4962257;29;20046;-62
2022/07/19 04:40:17;;;;;;;8.23;7.68;;;;;;;-141.48;100.00;69781.59;4977970;29;20038;-62
2022/07/19 04:42:47;;;;;;;8.30;7.80;;;;;;;-141.48;100.00;69781.59;4978723;29;20133;-62
2022/07/19 04:45:18;;;;;;;8.50;8.00;;;;;;;-141.48;100.00;69781.59;4977994;29;20049;-63
2022/07/19 04:47:48;;;;;;;13.80;7.63;;;;;;;-141.48;100.00;69781.59;4985240;24;20047;-65
2022/07/19 04:50:19;;;;;;;7.90;7.30;;;;;;;-141.48;100.00;69781.59;4972652;29;20026;-65
2022/07/19 04:52:49;;;;;;;6.68;6.30;;;;;;;-141.48;100.00;69781.59;4972481;29;20537;-65
2022/07/19 04:55:19;;;;;;;7.32;7.00;;;;;;;-141.48;100.00;69781.59;4972185;29;20031;-65
2022/07/19 04:57:50;;;;;;;8.55;7.95;;;;;;;-141.48;100.00;69781.59;4972545;29;20035;-65
2022/07/19 05:00:20;;;;;;;7.80;6.35;;;;;;;-141.48;100.00;69781.59;4972286;29;20484;-65
2022/07/19 05:02:53;;;;;;;7.15;6.60;;;;;;;-141.48;100.00;69781.59;4972611;29;20042;-65
2022/07/19 05:05:24;;;;;;;6.90;6.32;;;;;;;-141.48;100.00;69781.59;4972082;29;20106;-64
2022/07/19 05:07:54;;;;;;;9.38;8.48;;;;;;;-141.48;100.00;69781.59;4972283;29;20441;-65
2022/07/19 05:10:25;;;;;;;11.38;8.80;;;;;;;-141.48;100.00;69781.59;4956530;29;20058;-64
2022/07/19 05:12:55;;;;;;;17.17;7.80;;;;;;;-141.48;100.00;69781.59;4972091;29;20038;-66
2022/07/19 05:15:26;;;;;;;11.95;7.45;;;;;;;-141.48;100.00;69781.59;4971926;29;20027;-65
2022/07/19 05:17:56;;;;;;;8.60;7.85;;;;;;;-141.48;100.00;69781.59;4971824;29;20038;-65
2022/07/19 05:20:26;;;;;;;6.25;5.95;;;;;;;-141.48;100.00;69781.59;4972232;29;20034;-65
2022/07/19 05:22:57;;;;;;;8.13;7.50;;;;;;;-141.48;100.00;69781.59;4972104;29;20038;-65
2022/07/19 05:25:27;;;;;;;16.40;8.07;;;;;;;-141.48;100.00;69781.59;4955430;29;20179;-64
2022/07/19 05:27:57;;;;;;;9.27;8.18;;;;;;;-141.48;100.00;69781.59;4971829;29;20089;-63
2022/07/19 05:30:28;;;;;;;7.47;6.78;;;;;;;-141.48;100.00;69781.59;4970528;29;20026;-64
2022/07/19 05:32:58;;;;;;;9.15;8.45;;;;;;;-141.48;100.00;69781.59;4955692;29;20501;-64
2022/07/19 05:35:29;;;;;;;11.95;7.03;;;;;;;-141.48;100.00;69781.59;4971351;29;20030;-64
2022/07/19 05:37:59;;;;;;;6.97;6.55;;;;;;;-141.48;100.00;69781.59;4971685;29;20079;-64
2022/07/19 05:40:30;;;;;;;7.63;6.75;;;;;;;-141.48;100.00;69781.59;4971895;29;20027;-64
2022/07/19 05:43:00;;;;;;;11.68;7.45;;;;;;;-141.48;100.00;69781.59;4971416;29;20449;-64
2022/07/19 05:45:31;;;;;;;7.38;5.78;;;;;;;-141.48;100.00;69781.59;4971313;29;20477;-64
2022/07/19 05:48:02;;;;;;;7.70;7.13;;;;;;;-141.48;100.00;69781.59;4971556;29;20520;-63
2022/07/19 05:50:33;;;;;;;8.82;8.05;;;;;;;-141.48;100.00;69781.59;4971359;29;20027;-63
2022/07/19 05:53:03;;;;;;;7.25;6.57;;;;;;;-141.48;100.00;69781.59;4971518;29;20034;-64
2022/07/19 05:55:34;;;;;;;7.57;6.75;;;;;;;-141.48;100.00;69781.59;4970864;29;20482;-64
2022/07/19 05:58:04;;;;;;;7.82;7.15;;;;;;;-141.48;100.00;69781.59;4971323;29;20043;-64
2022/07/19 06:00:34;;;;;;;6.82;6.28;;;;;;;-141.48;100.00;69781.59;4971251;29;20026;-64
2022/07/19 06:03:05;;;;;;;14.45;7.18;;;;;;;-141.48;100.00;69781.59;4971295;29;20023;-64
2022/07/19 06:05:35;;;;;;;6.03;5.35;;;;;;;-141.48;100.00;69781.59;4970886;29;20049;-63
2022/07/19 06:08:06;;;;;;;5.57;5.18;;;;;;;-141.48;100.00;69781.59;4954903;29;20110;-63
2022/07/19 06:10:36;;;;;;;11.93;6.72;;;;;;;-141.48;100.00;69781.59;4954957;29;20037;-64
2022/07/19 06:13:06;;;;;;;4.97;4.70;;;;;;;-141.48;100.00;69781.59;4971031;29;20060;-63
2022/07/19 06:15:37;;;;;;;10.20;5.40;;;;;;;-141.48;100.00;69781.59;4954322;29;20037;-65
2022/07/19 06:18:07;;;;;;;7.22;6.22;;;;;;;-141.48;100.00;69781.59;4954772;29;20115;-64
2022/07/19 06:20:38;;;;;;;5.63;5.20;;;;;;;-141.48;100.00;69781.59;4970628;29;20114;-63
2022/07/19 06:23:08;;;;;;;10.75;5.78;;;;;;;-141.48;100.00;69781.59;4970852;29;20041;-63
2022/07/19 06:25:39;;;;;;;7.80;5.25;;;;;;;-141.48;100.00;69781.59;4970517;29;20400;-64
2022/07/19 06:28:09;;;;;;;12.05;5.03;;;;;;;-141.48;100.00;69781.59;4970624;29;20030;-63
2022/07/19 06:30:39;;;;;;;6.22;5.47;;;;;;;-141.48;100.00;69781.59;4970731;29;20392;-64
2022/07/19 06:33:10;;;;;;;5.43;4.93;;;;;;;-141.48;100.00;69781.59;4970742;29;20030;-63
2022/07/19 06:35:40;;;;;;;6.03;5.43;;;;;;;-141.48;100.00;69781.59;4970232;29;20117;-64
2022/07/19 06:38:12;;;;;;;5.68;5.28;;;;;;;-141.48;100.00;69781.59;4970548;29;20121;-63
2022/07/19 06:40:43;;;;;;;5.57;5.28;;;;;;;-141.48;100.00;69781.59;4970587;29;20031;-63
2022/07/19 06:43:13;;;;;;;27.35;7.68;;;;;;;-141.48;100.00;69781.59;4970088;29;20034;-64
2022/07/19 06:45:43;;;;;;;5.15;4.80;;;;;;;-141.48;100.00;69781.59;4939141;29;20118;-65
2022/07/19 06:48:14;;;;;;;4.88;4.47;;;;;;;-141.48;100.00;69781.59;4970591;29;20031;-64
2022/07/19 06:50:44;;;;;;;6.05;4.22;;;;;;;-141.48;100.00;69781.59;4970425;29;20037;-64
2022/07/19 06:53:15;;;;;;;4.32;3.90;;;;;;;-141.48;100.00;69781.59;4953927;29;20029;-66
2022/07/19 06:55:45;;;;;;;6.15;5.68;;;;;;;-141.48;100.00;69781.59;4969909;29;20096;-65
2022/07/19 06:58:16;;;;;;;4.28;4.07;;;;;;;-141.48;100.00;69781.59;4970553;29;20027;-66
2022/07/19 07:00:48;;;;;;;5.97;4.38;;;;;;;-141.48;100.00;69781.59;4970161;29;20027;-65
2022/07/19 07:03:19;;;;;;;4.10;3.90;;;;;;;-141.48;100.00;69781.59;4970360;29;20114;-65
2022/07/19 07:05:49;;;;;;;4.85;4.45;;;;;;;-141.48;100.00;69781.59;4970004;29;20110;-65
2022/07/19 07:08:20;;;;;;;4.60;4.38;;;;;;;-141.48;100.00;69781.59;4969948;29;20033;-64
2022/07/19 07:10:50;;;;;;;4.72;4.43;;;;;;;-141.48;100.00;69781.59;4970270;29;20023;-64
2022/07/19 07:13:20;;;;;;;4.75;3.90;;;;;;;-141.48;100.00;69781.59;4969929;29;20034;-65
2022/07/19 07:15:51;;;;;;;5.45;4.88;;;;;;;-141.48;100.00;69781.59;4969789;29;20397;-65
2022/07/19 07:18:21;;;;;;;5.15;4.80;;;;;;;-141.48;100.00;69781.59;4970023;29;20395;-65
2022/07/19 07:20:51;;;;;;;6.15;4.57;;;;;;;-141.48;100.00;69781.59;4969847;29;20027;-66
2022/07/19 07:23:23;;;;;;;3.60;3.40;;;;;;;-141.48;100.00;69781.59;4969473;29;20023;-66
2022/07/19 07:25:54;;;;;;;3.65;3.42;;;;;;;-141.48;100.00;69781.59;4953851;29;20087;-65
2022/07/19 07:28:24;;;;;;;5.90;5.35;;;;;;;-141.48;100.00;69781.59;4970292;29;20034;-64
2022/07/19 07:30:55;;;;;;;4.68;4.32;;;;;;;-141.48;100.00;69781.59;4953758;29;20034;-64
2022/07/19 07:33:25;;;;;;;3.92;3.72;;;;;;;-141.48;100.00;69781.59;4953039;29;20035;-65
2022/07/19 07:35:55;;;;;;;4.18;3.97;;;;;;;-141.48;100.00;69781.59;4969932;29;20031;-65
2022/07/19 07:38:26;;;;;;;3.55;3.35;;;;;;;-141.48;100.00;69781.59;4970059;29;20031;-65
2022/07/19 07:40:56;;;;;;;6.30;5.80;;;;;;;-141.48;100.00;69781.59;4969653;29;20031;-65
2022/07/19 07:43:27;;;;;;;5.90;4.43;;;;;;;-141.48;100.00;69781.59;4969388;29;20418;-65
2022/07/19 07:45:57;;;;;;;6.63;4.15;;;;;;;-141.48;100.00;69781.59;4969419;29;20035;-65
2022/07/19 07:48:27;;;;;;;4.13;3.92;;;;;;;-141.48;100.00;69781.59;4970061;29;20069;-64
2022/07/19 07:50:58;;;;;;;4.95;4.65;;;;;;;-141.48;100.00;69781.59;4969478;29;20031;-64
2022/07/19 07:53:30;;;;;;;4.07;3.88;;;;;;;-141.48;100.00;69781.59;4969654;29;20045;-64
2022/07/19 07:56:00;;;;;;;3.90;3.60;;;;;;;-141.48;100.00;69781.59;4973571;29;20054;-64
2022/07/19 07:58:31;;;;;;;4.43;4.03;;;;;;;-141.48;100.00;69781.59;4973384;29;20069;-65
2022/07/19 08:01:01;;;;;;;3.75;3.55;;;;;;;-141.48;100.00;69781.59;4973665;29;20035;-64
2022/07/19 08:03:32;;;;;;;2.83;2.72;;;;;;;-141.48;100.00;69781.59;4972904;29;20046;-63
2022/07/19 08:06:03;;;;;;;3.75;3.55;;;;;;;-141.48;100.00;69781.59;4973160;29;20030;-63
2022/07/19 08:08:33;;;;;;;3.10;2.90;;;;;;;-141.48;100.00;69781.59;4973100;29;20066;-65
2022/07/19 08:11:04;;;;;;;3.10;2.78;;;;;;;-141.48;100.00;69781.59;4956614;29;20046;-63
2022/07/19 08:13:35;;;;;;;6.55;3.88;;;;;;;-141.48;100.00;69781.59;4972639;29;20064;-64
2022/07/19 08:16:06;;;;;;;3.65;3.45;;;;;;;-141.48;100.00;69781.59;4973085;29;20030;-63
2022/07/19 08:18:36;;;;;;;9.90;4.30;;;;;;;-141.48;100.00;69781.59;4956745;29;20504;-64
2022/07/19 08:21:07;;;;;;;3.28;3.08;;;;;;;-141.48;100.00;69781.59;4956714;29;20034;-65
2022/07/19 08:23:37;;;;;;;4.32;4.03;;;;;;;-141.48;100.00;69781.59;4972433;29;20443;-64
2022/07/19 08:26:09;;;;;;;3.10;2.90;;;;;;;-141.48;100.00;69781.59;4972911;29;20031;-64
2022/07/19 08:28:39;;;;;;;4.20;3.90;;;;;;;-141.48;100.00;69781.59;4956548;29;20511;-64
2022/07/19 08:31:09;;;;;;;3.78;3.58;;;;;;;-141.48;100.00;69781.59;4972908;29;20035;-65
2022/07/19 08:33:41;;;;;;;3.42;3.22;;;;;;;-141.48;100.00;69781.59;4972204;29;20539;-64
2022/07/19 08:36:11;;;;;;;11.25;4.57;;;;;;;-141.48;100.00;69781.59;4972595;29;20118;-65
2022/07/19 08:38:41;;;;;;;5.88;4.50;;;;;;;-141.48;100.00;69781.59;4973141;29;20127;-63
2022/07/19 08:41:13;;;;;;;4.32;3.50;;;;;;;-141.48;100.00;69781.59;4956368;29;20544;-64
2022/07/19 08:43:44;;;;;;;3.45;3.10;;;;;;;-141.48;100.00;69781.59;4972133;29;20043;-65
2022/07/19 08:46:14;;;;;;;4.35;3.92;;;;;;;-141.48;100.00;69781.59;4972474;29;20039;-64
2022/07/19 08:48:47;;;;;;;3.92;3.20;;;;;;;-141.48;100.00;69781.59;4972555;29;20084;-64
2022/07/19 08:51:19;;;;;;;3.92;3.55;;;;;;;-141.48;100.00;69781.59;4972514;29;20035;-65
2022/07/19 08:53:50;;;;;;;5.10;4.00;;;;;;;-141.48;100.00;69781.59;4972081;29;20027;-65
2022/07/19 08:59:10;;;;;;;3.00;2.80;;;;;;;-141.48;100.00;69781.59;4973344;29;20130;-64
2022/07/19 09:01:40;;;;;;;4.85;3.25;;;;;;;-141.48;100.00;69781.59;4973026;29;20022;-64
2022/07/19 09:04:13;;;;;;;3.92;3.63;;;;;;;-141.48;100.00;69781.59;4971718;29;20109;-64
2022/07/19 09:06:43;;;;;;;4.60;3.00;;;;;;;-141.48;100.00;69781.59;4972148;29;20076;-64
2022/07/19 09:09:23;;;;;;;7.70;4.80;;;;;;;-141.48;100.00;69781.59;4972028;29;20039;-64
2022/07/19 09:11:55;;;;;;;4.57;3.97;;;;;;;-141.48;100.00;69781.59;4972184;29;20446;-64
2022/07/19 09:14:31;;;;;;;3.65;3.35;;;;;;;-141.48;100.00;69781.59;4971704;29;20034;-65
2022/07/19 09:17:09;;;;;;;3.45;3.15;;;;;;;-141.48;100.00;69781.59;4956210;29;20176;-64
2022/07/19 09:19:43;;;;;;;3.17;2.90;;;;;;;-141.48;100.00;69781.59;4972066;29;20034;-64
2022/07/19 09:22:16;;;;;;;3.50;3.15;;;;;;;-141.48;100.00;69781.59;4972172;29;20023;-65
2022/07/19 09:24:49;;;;;;;5.05;3.40;;;;;;;-141.48;100.00;69781.59;4971835;29;20027;-65
2022/07/19 09:27:25;;;;;;;2.70;2.50;;;;;;;-141.48;100.00;69781.59;4955978;29;20065;-65
2022/07/19 09:29:57;;;;;;;2.83;2.63;;;;;;;-141.48;100.00;69781.59;4971626;29;20031;-65
2022/07/19 09:32:27;;;;;;;3.40;3.08;;;;;;;-141.48;100.00;69781.59;4955642;29;20507;-65
2022/07/19 09:35:02;;;;;;;5.32;2.92;;;;;;;-141.48;100.00;69781.59;4955318;29;20035;-65
2022/07/19 09:37:34;;;;;;;4.53;2.83;;;;;;;-141.48;100.00;69781.59;4955434;29;20034;-65
2022/07/19 09:40:08;;;;;;;2.83;2.72;;;;;;;-141.48;100.00;69781.59;4971433;29;20441;-65
2022/07/19 09:42:43;;;;;;;3.00;2.80;;;;;;;-141.48;100.00;69781.59;4955299;29;20027;-65
2022/07/19 09:45:17;;;;;;;4.43;3.35;;;;;;;-141.48;100.00;69781.59;4954990;29;20027;-65
2022/07/19 09:47:48;;;;;;;3.85;3.63;;;;;;;-141.48;100.00;69781.59;4971385;29;20121;-65
2022/07/19 09:50:21;;;;;;;4.00;3.47;;;;;;;-141.48;100.00;69781.59;4971404;29;20118;-65
2022/07/19 09:52:52;;;;;;;3.65;3.45;;;;;;;-141.48;100.00;69781.59;4954991;29;20063;-66
2022/07/19 09:55:22;;;;;;;3.90;3.70;;;;;;;-141.48;100.00;69781.59;4971401;29;20118;-66
2022/07/19 09:57:55;;;;;;;3.08;2.88;;;;;;;-141.48;100.00;69781.59;4971380;29;20038;-66
2022/07/19 10:00:26;;;;;;;4.35;3.95;;;;;;;-141.48;100.00;69781.59;4971286;29;20051;-66
2022/07/19 10:02:59;;;;;;;2.97;2.65;;;;;;;-141.48;100.00;69781.59;4971375;29;20030;-65
2022/07/19 10:05:30;;;;;;;3.33;2.92;;;;;;;-141.48;100.00;69781.59;4954428;29;20027;-66
2022/07/19 10:08:01;;;;;;;2.80;2.67;;;;;;;-141.48;100.00;69781.59;4971283;29;20053;-66
2022/07/19 10:10:32;;;;;;;2.92;2.72;;;;;;;-141.48;100.00;69781.59;4971163;29;20035;-66
2022/07/19 10:13:03;;;;;;;3.78;3.42;;;;;;;-141.48;100.00;69781.59;4971129;29;20031;-66
2022/07/19 10:15:39;;;;;;;3.35;3.17;;;;;;;-141.48;100.00;69781.59;4970754;29;20038;-65
2022/07/19 10:18:16;;;;;;;2.85;2.65;;;;;;;-141.48;100.00;69781.59;4970198;29;20062;-66
2022/07/19 10:20:48;;;;;;;4.35;2.95;;;;;;;-141.48;100.00;69781.59;4971047;29;20031;-66
2022/07/19 10:23:31;;;;;;;2.78;2.58;;;;;;;-141.48;100.00;69781.59;4954579;29;20034;-66
2022/07/19 10:26:01;;;;;;;5.43;2.28;;;;;;;-141.48;100.00;69781.59;4970968;29;20034;-65
2022/07/19 10:28:34;;;;;;;3.05;2.85;;;;;;;-141.48;100.00;69781.59;4970675;29;20407;-65
2022/07/19 10:31:30;;;;;;;6.45;2.80;;;;;;;-141.48;100.00;69781.59;4970700;29;20031;-66
2022/07/19 10:34:06;;;;;;;3.38;3.08;;;;;;;-141.48;100.00;69781.59;4954102;29;20031;-66
2022/07/19 10:36:44;;;;;;;6.50;4.10;;;;;;;-141.48;100.00;69781.59;4970734;29;20037;-67
2022/07/19 10:39:20;;;;;;;3.92;3.55;;;;;;;-141.48;100.00;69781.59;4954566;29;20038;-66
2022/07/19 10:42:09;;;;;;;7.45;4.00;;;;;;;-141.48;100.00;69781.59;4970729;29;20109;-66
2022/07/19 10:44:54;;;;;;;2.67;2.47;;;;;;;-141.48;100.00;69781.59;4969995;29;20027;-66
2022/07/19 10:47:36;;;;;;;2.55;2.45;;;;;;;-141.48;100.00;69781.59;4970211;29;20031;-66
2022/07/19 10:50:14;;;;;;;2.38;2.28;;;;;;;-141.48;100.00;69781.59;4970400;29;20091;-66
2022/07/19 10:52:45;;;;;;;3.88;3.58;;;;;;;-141.48;100.00;69781.59;4970566;29;20242;-65
2022/07/19 10:55:25;;;;;;;3.30;3.10;;;;;;;-141.48;100.00;69781.59;4970157;29;20035;-65
2022/07/19 10:57:58;;;;;;;4.03;2.92;;;;;;;-141.48;100.00;69781.59;4970358;29;20027;-65
2022/07/19 11:00:30;;;;;;;10.70;4.85;;;;;;;-141.48;100.00;69781.59;4954047;29;20492;-65
2022/07/19 11:03:28;;;;;;;9.95;4.03;;;;;;;-141.48;100.00;69781.59;4970224;29;20023;-65
2022/07/19 11:06:00;;;;;;;2.88;2.17;;;;;;;-141.48;100.00;69781.59;4970089;29;20508;-65
2022/07/19 11:08:39;;;;;;;3.17;2.95;;;;;;;-141.48;100.00;69781.59;4970224;29;20079;-65
2022/07/19 11:11:15;;;;;;;2.50;2.40;;;;;;;-141.48;100.00;69781.59;4939213;29;20484;-66
2022/07/19 11:13:48;;;;;;;4.63;2.47;;;;;;;-141.48;100.00;69781.59;4969987;29;20488;-66
2022/07/19 11:16:19;;;;;;;2.53;2.42;;;;;;;-141.48;100.00;69781.59;4969942;29;20154;-65
2022/07/19 11:18:49;;;;;;;5.65;3.00;;;;;;;-141.48;100.00;69781.59;4970015;29;20071;-65
2022/07/19 11:21:21;;;;;;;2.90;2.70;;;;;;;-141.48;100.00;69781.59;4969926;29;20031;-65
2022/07/19 11:23:52;;;;;;;3.13;2.53;;;;;;;-141.48;100.00;69781.59;4953455;29;20023;-65
2022/07/19 11:26:22;;;;;;;3.88;3.00;;;;;;;-141.48;100.00;69781.59;4969993;29;20023;-65
2022/07/19 11:28:53;;;;;;;2.50;2.05;;;;;;;-141.48;100.00;69781.59;4970295;29;20038;-64
2022/07/19 11:31:25;;;;;;;2.65;2.40;;;;;;;-141.48;100.00;69781.59;4970587;29;20026;-64